createdAt,value
2018-08-07T00:01:35.939Z,5.70
2018-08-07T00:04:05.303Z,5.33
2018-08-07T00:06:34.774Z,5.00
2018-08-07T00:09:05.211Z,5.22
2018-08-07T00:11:35.500Z,5.00
2018-08-07T00:14:04.895Z,5.42
2018-08-07T00:16:34.211Z,5.15
2018-08-07T00:19:03.582Z,5.00
2018-08-07T00:21:32.931Z,6.80
2018-08-07T00:24:02.439Z,5.97
2018-08-07T00:26:31.755Z,5.10
2018-08-07T00:29:01.107Z,5.07
2018-08-07T00:31:30.534Z,4.73
2018-08-07T00:34:00.009Z,5.00
2018-08-07T00:36:29.471Z,5.45
2018-08-07T00:38:58.811Z,5.20
2018-08-07T00:41:28.419Z,4.57
2018-08-07T00:43:57.899Z,4.70
2018-08-07T00:46:27.411Z,6.42
2018-08-07T00:48:56.814Z,5.22
2018-08-07T00:51:26.191Z,5.30
2018-08-07T00:53:55.602Z,6.10
2018-08-07T00:56:24.979Z,5.47
2018-08-07T00:58:54.535Z,5.15
2018-08-07T01:01:23.833Z,5.30
2018-08-07T01:03:53.336Z,7.23
2018-08-07T01:06:22.744Z,6.40
2018-08-07T01:08:52.128Z,5.92
2018-08-07T01:11:21.544Z,5.28
2018-08-07T01:13:50.995Z,5.50
2018-08-07T01:16:20.341Z,6.83
2018-08-07T01:18:49.843Z,5.40
2018-08-07T01:21:19.478Z,6.42
2018-08-07T01:23:48.763Z,5.67
2018-08-07T01:26:18.077Z,5.55
2018-08-07T01:28:47.192Z,5.40
2018-08-07T01:31:16.622Z,5.72
2018-08-07T01:33:45.922Z,5.50
2018-08-07T01:36:15.343Z,6.95
2018-08-07T01:38:44.696Z,5.23
2018-08-07T01:41:14.072Z,5.37
2018-08-07T01:43:43.430Z,5.50
2018-08-07T01:46:13.046Z,5.83
2018-08-07T01:48:42.429Z,5.70
2018-08-07T01:51:11.815Z,5.37
2018-08-07T01:53:41.229Z,6.13
2018-08-07T01:56:10.515Z,5.15
2018-08-07T01:58:39.946Z,5.22
2018-08-07T02:01:09.282Z,5.55
2018-08-07T02:03:38.663Z,5.93
2018-08-07T02:06:08.071Z,6.03
2018-08-07T02:08:37.432Z,5.53
2018-08-07T02:11:07.025Z,8.78
2018-08-07T02:13:36.340Z,5.90
2018-08-07T02:16:05.813Z,7.13
2018-08-07T02:18:35.195Z,7.17
2018-08-07T02:21:04.524Z,5.83
2018-08-07T02:23:33.862Z,5.90
2018-08-07T02:26:03.250Z,6.50
2018-08-07T02:28:32.611Z,5.70
2018-08-07T02:31:01.962Z,5.22
2018-08-07T02:33:31.266Z,7.20
2018-08-07T02:36:00.639Z,5.30
2018-08-07T02:38:29.939Z,6.10
2018-08-07T02:40:59.266Z,6.80
2018-08-07T02:43:28.548Z,6.28
2018-08-07T02:45:57.920Z,5.83
2018-08-07T02:48:27.265Z,7.33
2018-08-07T02:50:56.657Z,5.53
2018-08-07T02:53:25.972Z,5.72
2018-08-07T02:55:55.391Z,5.95
2018-08-07T02:58:24.699Z,6.78
2018-08-07T03:00:53.979Z,7.67
2018-08-07T03:03:23.280Z,5.70
2018-08-07T03:05:52.551Z,5.90
2018-08-07T03:08:21.851Z,5.67
2018-08-07T03:10:51.136Z,5.42
2018-08-07T03:13:20.467Z,5.37
2018-08-07T03:15:49.935Z,8.03
2018-08-07T03:18:19.235Z,5.43
2018-08-07T03:20:50.576Z,5.74
2018-08-07T03:23:19.924Z,5.75
2018-08-07T03:25:51.983Z,6.53
2018-08-07T03:28:22.273Z,5.53
2018-08-07T03:30:52.052Z,6.47
2018-08-07T03:33:21.399Z,5.80
2018-08-07T03:35:50.757Z,5.47
2018-08-07T03:38:20.084Z,6.03
2018-08-07T03:40:49.416Z,5.50
2018-08-07T03:43:18.510Z,5.67
2018-08-07T03:45:47.947Z,6.37
2018-08-07T03:48:17.198Z,5.30
2018-08-07T03:50:46.584Z,7.40
2018-08-07T03:53:15.911Z,5.27
2018-08-07T03:55:45.226Z,6.40
2018-08-07T03:58:14.545Z,5.75
2018-08-07T04:00:47.732Z,6.15
2018-08-07T04:03:17.907Z,7.17
2018-08-07T04:05:47.288Z,6.07
2018-08-07T04:08:16.642Z,6.13
2018-08-07T04:10:45.917Z,5.87
2018-08-07T04:13:15.269Z,5.83
2018-08-07T04:15:44.592Z,5.67
2018-08-07T04:18:13.902Z,5.80
2018-08-07T04:20:43.209Z,5.37
2018-08-07T04:23:12.692Z,7.00
2018-08-07T04:25:41.952Z,5.58
2018-08-07T04:28:11.263Z,5.47
2018-08-07T04:31:11.717Z,5.60
2018-08-07T04:33:41.055Z,6.37
2018-08-07T04:36:10.480Z,5.90
2018-08-07T04:38:39.945Z,5.55
2018-08-07T04:41:09.373Z,5.73
2018-08-07T04:43:38.772Z,8.80
2018-08-07T04:46:08.102Z,6.20
2018-08-07T04:48:37.506Z,5.10
2018-08-07T04:51:06.913Z,6.60
2018-08-07T04:53:36.287Z,5.80
2018-08-07T04:56:05.821Z,5.70
2018-08-07T04:58:35.144Z,5.30
2018-08-07T05:01:04.497Z,6.33
2018-08-07T05:03:33.892Z,6.62
2018-08-07T05:06:03.303Z,9.63
2018-08-07T05:08:32.706Z,7.50
2018-08-07T05:11:02.120Z,7.28
2018-08-07T05:13:31.589Z,7.22
2018-08-07T05:16:01.003Z,9.05
2018-08-07T05:18:30.332Z,6.87
2018-08-07T05:20:59.677Z,7.83
2018-08-07T05:23:29.036Z,8.68
2018-08-07T05:25:58.329Z,7.50
2018-08-07T05:28:27.792Z,8.53
2018-08-07T05:30:57.223Z,7.53
2018-08-07T05:33:26.538Z,10.00
2018-08-07T05:35:56.096Z,5.47
2018-08-07T05:38:25.408Z,6.83
2018-08-07T05:40:54.949Z,7.58
2018-08-07T05:43:24.300Z,9.73
2018-08-07T05:45:53.662Z,9.75
2018-08-07T05:48:22.978Z,9.75
2018-08-07T05:50:52.533Z,6.22
2018-08-07T05:53:21.619Z,6.47
2018-08-07T05:55:51.311Z,4.70
2018-08-07T05:58:20.739Z,5.83
2018-08-07T06:00:50.133Z,8.65
2018-08-07T06:03:19.584Z,6.50
2018-08-07T06:05:49.009Z,5.83
2018-08-07T06:08:18.422Z,5.47
2018-08-07T06:10:47.783Z,6.75
2018-08-07T06:13:17.063Z,4.08
2018-08-07T06:15:46.428Z,8.33
2018-08-07T06:18:15.767Z,4.57
2018-08-07T06:20:45.042Z,5.00
2018-08-07T06:23:14.362Z,4.60
2018-08-07T06:25:43.744Z,5.87
2018-08-07T06:28:13.086Z,5.10
2018-08-07T06:30:42.439Z,5.07
2018-08-07T06:33:11.712Z,6.33
2018-08-07T06:35:42.478Z,4.55
2018-08-07T06:38:11.751Z,5.05
2018-08-07T06:40:41.011Z,8.93
2018-08-07T06:43:10.313Z,3.93
2018-08-07T06:45:39.599Z,4.70
2018-08-07T06:48:08.979Z,6.85
2018-08-07T06:50:38.278Z,5.37
2018-08-07T06:53:07.959Z,5.93
2018-08-07T06:55:37.332Z,6.50
2018-08-07T06:58:07.614Z,9.65
2018-08-07T07:00:38.200Z,4.22
2018-08-07T07:03:07.535Z,6.22
2018-08-07T07:05:36.816Z,6.63
2018-08-07T07:08:06.195Z,3.30
2018-08-07T07:10:35.470Z,3.65
2018-08-07T07:13:04.988Z,4.33
2018-08-07T07:15:34.280Z,3.60
2018-08-07T07:18:03.602Z,3.20
2018-08-07T07:20:32.981Z,3.13
2018-08-07T07:23:02.286Z,3.08
2018-08-07T07:25:31.622Z,3.05
2018-08-07T07:28:00.938Z,3.35
2018-08-07T07:30:30.287Z,4.10
2018-08-07T07:32:59.536Z,3.20
2018-08-07T07:35:28.829Z,3.33
2018-08-07T07:37:58.254Z,3.02
2018-08-07T07:40:27.591Z,3.80
2018-08-07T07:42:56.928Z,2.80
2018-08-07T07:45:26.331Z,3.17
2018-08-07T07:47:55.861Z,3.62
2018-08-07T07:50:25.301Z,5.43
2018-08-07T07:52:54.570Z,3.85
2018-08-07T07:55:23.956Z,2.90
2018-08-07T07:57:53.246Z,3.20
2018-08-07T08:00:26.257Z,3.02
2018-08-07T08:02:55.603Z,4.12
2018-08-07T08:05:26.326Z,2.95
2018-08-07T08:07:56.176Z,2.72
2018-08-07T08:10:25.645Z,3.33
2018-08-07T08:12:55.000Z,8.00
2018-08-07T08:15:24.364Z,3.12
2018-08-07T08:17:53.728Z,3.43
2018-08-07T08:20:24.266Z,3.27
2018-08-07T08:22:54.439Z,2.80
2018-08-07T08:25:23.709Z,2.90
2018-08-07T08:27:52.991Z,4.10
2018-08-07T08:30:22.346Z,3.45
2018-08-07T08:32:51.618Z,3.22
2018-08-07T08:35:21.151Z,3.43
2018-08-07T08:37:50.715Z,3.20
2018-08-07T08:40:23.053Z,4.40
2018-08-07T08:42:52.536Z,4.70
2018-08-07T08:45:25.217Z,4.20
2018-08-07T08:47:59.381Z,4.62
2018-08-07T08:50:28.975Z,3.20
2018-08-07T08:52:58.259Z,2.87
2018-08-07T08:55:27.576Z,4.45
2018-08-07T08:57:56.942Z,4.25
2018-08-07T09:00:29.224Z,4.27
2018-08-07T09:03:00.547Z,3.60
2018-08-07T09:05:30.897Z,4.90
2018-08-07T09:08:00.275Z,3.75
2018-08-07T09:10:31.374Z,3.20
2018-08-07T09:13:01.873Z,3.60
2018-08-07T09:15:31.277Z,3.47
2018-08-07T09:18:00.615Z,3.70
2018-08-07T09:20:31.632Z,4.20
2018-08-07T09:23:00.974Z,3.37
2018-08-07T09:25:31.368Z,3.83
2018-08-07T09:28:00.649Z,3.50
2018-08-07T09:30:30.944Z,3.37
2018-08-07T09:33:00.702Z,3.23
2018-08-07T09:35:30.036Z,4.37
2018-08-07T09:37:59.728Z,3.15
2018-08-07T09:40:29.072Z,4.60
2018-08-07T09:42:58.589Z,3.43
2018-08-07T09:45:31.658Z,3.30
2018-08-07T09:48:02.342Z,3.52
2018-08-07T09:50:32.522Z,3.68
2018-08-07T09:53:01.910Z,3.33
2018-08-07T09:55:31.549Z,4.37
2018-08-07T09:58:01.015Z,5.70
2018-08-07T10:00:35.536Z,5.30
2018-08-07T10:03:09.907Z,3.90
2018-08-07T10:05:39.306Z,3.77
2018-08-07T10:08:08.857Z,3.70
2018-08-07T10:10:38.260Z,3.33
2018-08-07T10:13:07.827Z,3.80
2018-08-07T10:15:37.151Z,3.77
2018-08-07T10:18:06.672Z,3.27
2018-08-07T10:20:35.988Z,5.40
2018-08-07T10:23:05.343Z,4.22
2018-08-07T10:25:34.613Z,4.03
2018-08-07T10:28:03.898Z,3.63
2018-08-07T10:30:33.202Z,3.50
2018-08-07T10:33:02.554Z,3.83
2018-08-07T10:35:31.967Z,3.47
2018-08-07T10:38:01.230Z,3.20
2018-08-07T10:40:30.703Z,5.40
2018-08-07T10:42:59.962Z,3.63
2018-08-07T10:45:29.325Z,4.05
2018-08-07T10:47:58.646Z,3.70
2018-08-07T10:50:29.900Z,3.93
2018-08-07T10:52:59.728Z,3.83
2018-08-07T10:55:29.033Z,3.90
2018-08-07T10:58:00.109Z,3.90
2018-08-07T11:00:31.258Z,3.58
2018-08-07T11:03:00.758Z,3.60
2018-08-07T11:05:30.544Z,3.40
2018-08-07T11:08:00.138Z,4.00
2018-08-07T11:10:29.488Z,3.87
2018-08-07T11:12:58.862Z,3.70
2018-08-07T11:15:32.028Z,3.93
2018-08-07T11:18:02.137Z,4.10
2018-08-07T11:20:31.708Z,3.87
2018-08-07T11:23:02.067Z,4.50
2018-08-07T11:25:32.073Z,4.78
2018-08-07T11:28:02.007Z,4.58
2018-08-07T11:30:31.603Z,4.33
2018-08-07T11:33:01.925Z,3.80
2018-08-07T11:35:31.267Z,3.57
2018-08-07T11:38:03.246Z,4.00
2018-08-07T11:40:32.563Z,9.40
2018-08-07T11:43:01.934Z,5.27
2018-08-07T11:45:31.739Z,4.30
2018-08-07T11:48:01.073Z,3.83
2018-08-07T11:50:32.230Z,4.26
2018-08-07T11:53:01.695Z,3.70
2018-08-07T11:55:30.992Z,4.17
2018-08-07T11:58:00.388Z,4.33
2018-08-07T12:00:33.262Z,4.35
2018-08-07T12:03:02.951Z,4.45
2018-08-07T12:05:32.409Z,4.92
2018-08-07T12:08:01.985Z,4.12
2018-08-07T12:10:31.338Z,4.70
2018-08-07T12:13:00.816Z,4.80
2018-08-07T12:15:30.223Z,4.97
2018-08-07T12:17:59.639Z,4.03
2018-08-07T12:20:29.074Z,4.15
2018-08-07T12:22:58.432Z,4.27
2018-08-07T12:25:27.834Z,4.03
2018-08-07T12:27:57.453Z,4.00
2018-08-07T12:30:28.043Z,4.10
2018-08-07T12:32:57.828Z,5.25
2018-08-07T12:35:27.351Z,6.80
2018-08-07T12:37:56.731Z,4.93
2018-08-07T12:40:29.143Z,4.75
2018-08-07T12:43:03.458Z,4.40
2018-08-07T12:45:33.075Z,4.78
2018-08-07T12:48:02.485Z,5.00
2018-08-07T12:50:31.887Z,5.80
2018-08-07T12:53:01.387Z,4.53
2018-08-07T12:55:30.713Z,3.87
2018-08-07T12:58:00.279Z,5.33
2018-08-07T13:00:31.986Z,4.53
2018-08-07T13:03:01.361Z,4.23
2018-08-07T13:05:30.732Z,4.20
2018-08-07T13:08:00.126Z,4.60
2018-08-07T13:10:29.713Z,4.60
2018-08-07T13:12:59.037Z,4.42
2018-08-07T13:15:28.315Z,4.53
2018-08-07T13:17:57.647Z,4.70
2018-08-07T13:20:27.109Z,5.00
2018-08-07T13:22:56.561Z,4.87
2018-08-07T13:25:25.934Z,4.78
2018-08-07T13:27:55.275Z,6.70
2018-08-07T13:30:26.142Z,5.43
2018-08-07T13:32:55.939Z,5.03
2018-08-07T13:35:25.922Z,4.70
2018-08-07T13:37:55.205Z,5.33
2018-08-07T13:40:25.311Z,4.27
2018-08-07T13:42:54.651Z,4.50
2018-08-07T13:45:26.012Z,4.30
2018-08-07T13:47:55.415Z,4.35
2018-08-07T13:50:26.224Z,5.83
2018-08-07T13:52:55.614Z,4.03
2018-08-07T13:55:25.861Z,4.10
2018-08-07T13:57:55.361Z,3.93
2018-08-07T14:00:26.873Z,3.98
2018-08-07T14:02:58.095Z,4.72
2018-08-07T14:05:28.330Z,4.25
2018-08-07T14:07:58.383Z,8.35
2018-08-07T14:10:29.102Z,6.93
2018-08-07T14:12:59.025Z,4.65
2018-08-07T14:15:29.588Z,4.25
2018-08-07T14:18:00.011Z,3.58
2018-08-07T14:20:29.385Z,4.87
2018-08-07T14:22:58.731Z,3.47
2018-08-07T14:25:29.323Z,3.98
2018-08-07T14:27:58.630Z,3.23
2018-08-07T14:30:29.906Z,3.32
2018-08-07T14:33:03.169Z,3.45
2018-08-07T14:35:32.435Z,4.70
2018-08-07T14:38:01.833Z,3.93
2018-08-07T14:40:31.142Z,3.73
2018-08-07T14:43:00.478Z,5.65
2018-08-07T14:45:30.297Z,4.15
2018-08-07T14:47:59.933Z,5.37
2018-08-07T14:50:30.231Z,6.07
2018-08-07T14:52:59.598Z,3.50
2018-08-07T14:55:29.079Z,6.73
2018-08-07T14:57:58.966Z,3.62
2018-08-07T15:00:29.639Z,4.40
2018-08-07T15:02:58.912Z,3.85
2018-08-07T15:05:28.319Z,4.03
2018-08-07T15:07:57.623Z,3.97
2018-08-07T15:10:27.912Z,4.30
2018-08-07T15:12:57.162Z,4.62
2018-08-07T15:15:29.837Z,4.50
2018-08-07T15:17:59.193Z,4.20
2018-08-07T15:20:30.114Z,3.77
2018-08-07T15:22:59.562Z,3.40
2018-08-07T15:25:28.832Z,6.45
2018-08-07T15:27:58.170Z,5.45
2018-08-07T15:30:28.239Z,6.27
2018-08-07T15:32:57.763Z,3.40
2018-08-07T15:35:28.576Z,5.20
2018-08-07T15:37:59.247Z,4.68
2018-08-07T15:40:28.481Z,6.13
2018-08-07T15:42:57.769Z,3.47
2018-08-07T15:45:27.111Z,8.07
2018-08-07T15:47:56.502Z,4.97
2018-08-07T15:50:26.952Z,3.60
2018-08-07T15:52:56.541Z,6.12
2018-08-07T15:55:27.024Z,3.92
2018-08-07T15:57:56.307Z,5.03
2018-08-07T16:00:28.480Z,3.40
2018-08-07T16:03:00.786Z,3.47
2018-08-07T16:05:31.338Z,3.68
2018-08-07T16:08:00.664Z,6.08
2018-08-07T16:10:30.051Z,4.92
2018-08-07T16:12:59.324Z,7.50
2018-08-07T16:15:28.612Z,4.47
2018-08-07T16:17:57.900Z,3.67
2018-08-07T16:20:27.307Z,3.90
2018-08-07T16:22:57.451Z,4.37
2018-08-07T16:25:26.837Z,4.67
2018-08-07T16:27:56.225Z,4.90
2018-08-07T16:30:27.559Z,4.28
2018-08-07T16:32:56.921Z,6.10
2018-08-07T16:35:26.279Z,5.40
2018-08-07T16:37:55.608Z,3.55
2018-08-07T16:40:25.372Z,5.83
2018-08-07T16:42:55.649Z,4.92
2018-08-07T16:45:25.506Z,4.37
2018-08-07T16:47:54.949Z,4.33
2018-08-07T16:50:27.417Z,5.67
2018-08-07T16:52:57.455Z,5.53
2018-08-07T16:55:28.472Z,4.90
2018-08-07T16:57:57.773Z,4.75
2018-08-07T17:00:27.109Z,4.47
2018-08-07T17:02:56.490Z,4.93
2018-08-07T17:05:25.951Z,5.27
2018-08-07T17:07:55.234Z,6.33
2018-08-07T17:10:26.754Z,7.20
2018-08-07T17:12:56.063Z,4.70
2018-08-07T17:15:25.377Z,5.57
2018-08-07T17:17:54.829Z,4.90
2018-08-07T17:20:24.276Z,6.20
2018-08-07T17:22:54.975Z,8.85
2018-08-07T17:25:24.866Z,6.17
2018-08-07T17:27:54.167Z,5.60
2018-08-07T17:30:26.685Z,5.70
2018-08-07T17:32:56.033Z,5.27
2018-08-07T17:35:26.367Z,6.90
2018-08-07T17:37:57.696Z,6.58
2018-08-07T17:40:28.326Z,5.67
2018-08-07T17:42:57.882Z,5.27
2018-08-07T17:45:27.166Z,6.53
2018-08-07T17:47:56.539Z,5.53
2018-08-07T17:50:27.447Z,6.18
2018-08-07T17:52:58.442Z,5.17
2018-08-07T17:55:27.754Z,6.23
2018-08-07T17:57:58.595Z,5.17
2018-08-07T18:00:27.979Z,5.17
2018-08-07T18:02:57.964Z,5.72
2018-08-07T18:05:27.248Z,6.87
2018-08-07T18:07:57.551Z,5.20
2018-08-07T18:10:26.918Z,4.90
2018-08-07T18:12:56.279Z,7.17
2018-08-07T18:15:26.208Z,5.10
2018-08-07T18:17:55.563Z,5.85
2018-08-07T18:20:26.147Z,5.67
2018-08-07T18:22:56.291Z,9.47
2018-08-07T18:25:25.658Z,5.50
2018-08-07T18:27:55.010Z,6.62
2018-08-07T18:30:25.241Z,6.03
2018-08-07T18:32:54.606Z,5.80
2018-08-07T18:35:25.297Z,5.80
2018-08-07T18:37:54.590Z,6.37
2018-08-07T18:40:23.856Z,5.75
2018-08-07T18:42:53.137Z,5.67
2018-08-07T18:45:22.466Z,5.60
2018-08-07T18:47:51.810Z,6.57
2018-08-07T18:50:22.719Z,6.65
2018-08-07T18:52:52.231Z,5.80
2018-08-07T18:55:21.520Z,13.22
2018-08-07T18:57:51.437Z,7.57
2018-08-07T19:00:22.352Z,7.83
2018-08-07T19:02:51.666Z,8.00
2018-08-07T19:05:22.206Z,8.23
2018-08-07T19:07:51.489Z,5.90
2018-08-07T19:10:20.835Z,8.67
2018-08-07T19:12:50.492Z,6.90
2018-08-07T19:15:20.661Z,5.80
2018-08-07T19:17:50.077Z,6.15
2018-08-07T19:20:20.685Z,7.67
2018-08-07T19:22:50.108Z,7.22
2018-08-07T19:25:20.483Z,7.80
2018-08-07T19:27:49.963Z,8.37
2018-08-07T19:30:21.230Z,6.78
2018-08-07T19:32:50.823Z,7.22
2018-08-07T19:35:20.138Z,6.80
2018-08-07T19:37:49.446Z,6.75
2018-08-07T19:40:19.801Z,6.33
2018-08-07T19:42:49.794Z,7.50
2018-08-07T19:45:19.388Z,7.53
2018-08-07T19:47:48.763Z,6.85
2018-08-07T19:50:19.707Z,8.07
2018-08-07T19:52:48.959Z,6.60
2018-08-07T19:55:20.047Z,7.60
2018-08-07T19:57:49.331Z,6.58
2018-08-07T20:00:23.647Z,8.80
2018-08-07T20:02:53.083Z,8.73
2018-08-07T20:05:22.587Z,6.90
2018-08-07T20:07:52.602Z,7.93
2018-08-07T20:10:22.252Z,8.67
2018-08-07T20:12:51.641Z,8.15
2018-08-07T20:15:23.703Z,7.47
2018-08-07T20:17:53.525Z,7.87
2018-08-07T20:20:23.482Z,8.40
2018-08-07T20:22:52.990Z,7.10
2018-08-07T20:25:22.467Z,7.00
2018-08-07T20:27:51.798Z,7.55
2018-08-07T20:30:22.257Z,7.67
2018-08-07T20:32:53.051Z,9.93
2018-08-07T20:35:22.422Z,7.40
2018-08-07T20:37:51.868Z,8.90
2018-08-07T20:40:24.344Z,8.33
2018-08-07T20:42:54.782Z,7.10
2018-08-07T20:45:24.196Z,7.15
2018-08-07T20:47:53.595Z,7.60
2018-08-07T20:50:26.302Z,8.70
2018-08-07T20:52:56.342Z,9.00
2018-08-07T20:55:25.840Z,9.10
2018-08-07T20:57:55.197Z,7.90
2018-08-07T21:00:25.861Z,8.50
2018-08-07T21:02:55.242Z,7.90
2018-08-07T21:05:24.937Z,8.17
2018-08-07T21:07:54.924Z,10.16
2018-08-07T21:10:26.612Z,7.90
2018-08-07T21:12:56.247Z,8.33
2018-08-07T21:15:25.782Z,8.30
2018-08-07T21:17:55.104Z,8.08
2018-08-07T21:20:24.956Z,8.30
2018-08-07T21:22:54.314Z,8.80
2018-08-07T21:25:24.768Z,8.03
2018-08-07T21:27:55.700Z,7.83
2018-08-07T21:30:26.865Z,8.20
2018-08-07T21:32:56.185Z,9.50
2018-08-07T21:35:25.601Z,8.13
2018-08-07T21:37:54.922Z,8.63
2018-08-07T21:40:24.882Z,7.73
2018-08-07T21:42:55.441Z,8.13
2018-08-07T21:45:24.697Z,9.05
2018-08-07T21:47:54.003Z,8.68
2018-08-07T21:50:24.684Z,7.70
2018-08-07T21:52:53.997Z,7.33
2018-08-07T21:55:23.298Z,7.80
2018-08-07T21:57:52.849Z,8.32
2018-08-07T22:00:58.813Z,8.03
2018-08-07T22:03:28.587Z,8.32
2018-08-07T22:05:57.851Z,8.03
2018-08-07T22:08:33.479Z,7.90
2018-08-07T22:11:02.832Z,8.37
2018-08-07T22:13:32.155Z,10.83
2018-08-07T22:16:01.432Z,8.05
2018-08-07T22:18:30.733Z,7.85
2018-08-07T22:21:00.011Z,9.58
2018-08-07T22:23:29.283Z,8.33
2018-08-07T22:25:58.601Z,8.87
2018-08-07T22:28:27.891Z,9.63
2018-08-07T22:30:57.190Z,8.63
2018-08-07T22:33:26.507Z,9.93
2018-08-07T22:35:55.808Z,8.10
2018-08-07T22:38:25.067Z,8.77
2018-08-07T22:40:54.355Z,7.95
2018-08-07T22:43:23.670Z,11.05
2018-08-07T22:45:53.042Z,9.10
2018-08-07T22:48:22.338Z,8.05
2018-08-07T22:50:51.635Z,7.93
2018-08-07T22:53:20.906Z,9.85
2018-08-07T22:55:50.278Z,8.95
2018-08-07T22:58:19.624Z,9.03
2018-08-07T23:00:48.920Z,9.10
2018-08-07T23:03:18.295Z,9.97
2018-08-07T23:05:47.641Z,8.73
2018-08-07T23:08:17.080Z,8.38
2018-08-07T23:10:46.628Z,8.48
2018-08-07T23:13:15.930Z,9.13
2018-08-07T23:15:45.160Z,11.90
2018-08-07T23:18:14.419Z,8.68
2018-08-07T23:20:43.894Z,8.25
2018-08-07T23:23:13.215Z,9.10
2018-08-07T23:25:42.511Z,8.50
2018-08-07T23:28:11.826Z,8.60
2018-08-07T23:30:41.075Z,8.90
2018-08-07T23:33:10.542Z,8.43
2018-08-07T23:35:39.787Z,8.60
2018-08-07T23:38:09.163Z,8.20
2018-08-07T23:40:38.514Z,8.47
2018-08-07T23:43:07.763Z,9.10
2018-08-07T23:45:37.111Z,7.62
2018-08-07T23:48:06.365Z,8.80
2018-08-07T23:50:35.784Z,8.13
2018-08-07T23:53:05.095Z,8.70
2018-08-07T23:55:34.421Z,9.15
2018-08-07T23:58:03.723Z,7.83
